Epsom, NH (03234)

5:36 PM EST on December 02, 2016 (GMT -0500)
Leighton Brook | | Change Station

Elev 522 ft 43.21 °N, 71.35 °W | Updated 7 seconds ago

Mostly Cloudy
Mostly Cloudy
43.2 °F
Feels Like 43 °F
N
1.8
Wind Variable Wind from SSW
Gusts 2.5 mph

Today
High -- | Low -- °F
--% Chance of Precip.
Yesterday
High -- | Low -- °F
Precip. -- in
Pressure 29.73 in
Visibility 10.0 miles
Clouds Few 4900 ft
Mostly Cloudy 7500 ft
Windchill 43 °F
Dew Point 29 °F
Humidity 56%
Rainfall 0.00 in
Snow Depth Not available.
6:59 AM 4:10 PM
Waxing Crescent, 11% visible
METAR KCON 022151Z AUTO 24005KT 10SM FEW049 BKN075 07/M02 A2971 RMK AO2 SLP065 T00721017
Pressure 29.73 in
Visibility 10.0 miles
Clouds Few 4900 ft
Mostly Cloudy 7500 ft
Windchill 43 °F
Dew Point 29 °F
Humidity 56%
Rainfall 0.00 in
Snow Depth Not available.
6:59 AM 4:10 PM
Waxing Crescent, 11% visible
METAR KCON 022151Z AUTO 24005KT 10SM FEW049 BKN075 07/M02 A2971 RMK AO2 SLP065 T00721017

10-Day Weather Forecast

Almanac

Astronomy

Dec. 02, 2016 Rise Set
Actual Time
Civil Twilight
Nautical Twilight
Astronomical Twilight
Moon
Length of Visible Light
Length of Day
Tomorrow will be .
, % of the Moon is Illuminated

Today's Extremes

State Highs State Lows

Community

WunderPhotos

Upload Photos

1,955,376 photos uploaded!

WunderBlog® & News

Nearby

Air Quality

  Air Quality AQ Index Pollutant
Not available.

Snow Depth

Station Depth Elevation

Earthquake Activity

City Distance Mag. Time & Date
Minimum magnitude displayed is 2.5.

Coastal Water Temperatures

Place Temperature

Stations

Nearby Weather Stations

Station Location Temp. Windchill Dew Point Humidity Wind Precip. Elev Updated Type
                   

Watches & Warnings

There are currently no watches in effect.